Portada
METAR-TAF:

METAR-TAF

Aeropuertos :

Aeropuerto de Bolonia

Bolonia, Italia

latitud: 44-32N, longitud: 011-18E, altitud: 36 m

Observación

El informe se hizo hace 25 minutos, a las 21:50 UTC
Viento 6 kt del sur-sureste, variando entre este-sureste y sur-suroeste
Temperatura 17°C
Humedad 94%
Presión 995 hPa
Visibilidad 10 km o más
sin nubes por debajo de 1500 m y sin presencia de cumulonimbus.

METAR: LIPE 042150Z 15006KT 120V210 CAVOK 17/16 Q0995 RETS

Hora: 00:15 (22:15 UTC)

Pronóstico

El informe se hizo hace 5 horas y 15 minutos, a las 17:00 UTC
Pronóstico válido del 04 a las 18 UTC al 05 a las 18 UTC
Viento 5 kt con dirección variable
Visibilidad 10 km o más
Escasas nubes a una altura de 3000 ft
Evolucionando progresivamente
del 04 a las 20 UTC al 04 a las 22 UTC
Viento 5 kt con dirección variable

TAF: LIPE 041700Z 0418/0518 VRB05KT 9999 FEW030 BECMG 0420/0422 VRB05KT

Observaciones y pronósticos meteorológicos de más de 4000 aeropuertos (mensajes METAR y TAF).

Los puntos amarillos y rojos representan las estaciones disponibles.

Ponga el ratón en el punto deseado para ver el nombre de la estación.

Haga clic para ver las observaciones y los pronósticos meteorológicos.

Para cambiar el mapa : haga clic en los botones verdes con una cruz de color negro para hacer un zoom, en el botón verde con un guión para alejar o en las flechas verdes para mapas adyacentes.


METAR-TAF: